createdAt,value
2018-12-07T00:00:03.615Z,100678.92
2018-12-07T00:01:06.452Z,100670.75
2018-12-07T00:02:09.014Z,100667.19
2018-12-07T00:03:11.595Z,100656.26
2018-12-07T00:04:14.115Z,100660.39
2018-12-07T00:05:16.630Z,100656.59
2018-12-07T00:06:19.172Z,100644.85
2018-12-07T00:07:21.667Z,100638.03
2018-12-07T00:08:24.258Z,100640.27
2018-12-07T00:09:26.855Z,100634.28
2018-12-07T00:10:29.426Z,100635.42
2018-12-07T00:11:31.934Z,100634.38
2018-12-07T00:12:34.480Z,100628.96
2018-12-07T00:13:36.961Z,100625.73
2018-12-07T00:14:39.451Z,100625.25
2018-12-07T00:15:41.960Z,100626.39
2018-12-07T00:16:44.461Z,100625.64
2018-12-07T00:17:46.951Z,100623.22
2018-12-07T00:18:49.427Z,100621.94
2018-12-07T00:19:51.889Z,100619.18
2018-12-07T00:20:54.373Z,100624.69
2018-12-07T00:21:56.853Z,100617.23
2018-12-07T00:22:59.328Z,100622.66
2018-12-07T00:24:01.829Z,100615.38
2018-12-07T00:25:04.710Z,100604.41
2018-12-07T00:26:07.198Z,100610.88
2018-12-07T00:27:09.690Z,100603.89
2018-12-07T00:28:12.229Z,100602.69
2018-12-07T00:29:14.719Z,100599.11
2018-12-07T00:30:17.382Z,100599.34
2018-12-07T00:31:19.878Z,100601.95
2018-12-07T00:32:22.360Z,100599.42
2018-12-07T00:33:24.826Z,100598.99
2018-12-07T00:34:27.317Z,100599.80
2018-12-07T00:35:29.816Z,100596.48
2018-12-07T00:36:32.295Z,100586.83
2018-12-07T00:37:34.796Z,100593.39
2018-12-07T00:38:37.293Z,100598.09
2018-12-07T00:39:39.784Z,100601.75
2018-12-07T00:40:42.374Z,100592.11
2018-12-07T00:41:44.869Z,100591.88
2018-12-07T00:42:47.383Z,100587.83
2018-12-07T00:43:49.882Z,100589.78
2018-12-07T00:44:52.409Z,100578.28
2018-12-07T00:45:54.877Z,100584.37
2018-12-07T00:46:57.363Z,100575.36
2018-12-07T00:47:59.842Z,100578.21
2018-12-07T00:49:02.356Z,100579.11
2018-12-07T00:50:05.103Z,100581.39
2018-12-07T00:52:09.367Z,100577.66
2018-12-07T00:53:11.856Z,100578.23
2018-12-07T00:54:14.371Z,100571.41
2018-12-07T00:55:28.627Z,100575.06
2018-12-07T00:56:31.107Z,100570.13
2018-12-07T00:57:33.598Z,100569.55
2018-12-07T00:58:36.093Z,100566.09
2018-12-07T00:59:38.591Z,100572.73
2018-12-07T01:00:41.105Z,100568.13
2018-12-07T01:01:43.779Z,100564.90
2018-12-07T01:02:46.278Z,100560.53
2018-12-07T01:03:48.758Z,100569.13
2018-12-07T01:04:51.340Z,100568.05
2018-12-07T01:05:53.868Z,100569.19
2018-12-07T01:06:56.354Z,100566.53
2018-12-07T01:07:58.853Z,100563.44
2018-12-07T01:09:01.405Z,100574.30
2018-12-07T01:10:05.277Z,100557.92
2018-12-07T01:11:07.814Z,100558.53
2018-12-07T01:12:10.287Z,100564.12
2018-12-07T01:13:12.870Z,100564.44
2018-12-07T01:14:15.342Z,100556.07
2018-12-07T01:15:17.811Z,100560.84
2018-12-07T01:16:20.301Z,100552.25
2018-12-07T01:17:22.825Z,100552.15
2018-12-07T01:18:25.304Z,100551.81
2018-12-07T01:19:27.803Z,100557.80
2018-12-07T01:20:30.283Z,100553.91
2018-12-07T01:21:32.770Z,100555.52
2018-12-07T01:22:35.270Z,100553.80
2018-12-07T01:23:37.780Z,100554.47
2018-12-07T01:24:40.277Z,100551.14
2018-12-07T01:25:42.766Z,100554.47
2018-12-07T01:26:45.280Z,100553.91
2018-12-07T01:27:47.878Z,100550.34
2018-12-07T01:28:50.404Z,100549.63
2018-12-07T01:29:52.889Z,100549.39
2018-12-07T01:30:55.354Z,100545.02
2018-12-07T01:31:57.851Z,100542.27
2018-12-07T01:33:00.421Z,100539.84
2018-12-07T01:34:02.975Z,100543.27
2018-12-07T01:35:05.500Z,100538.06
2018-12-07T01:36:07.975Z,100542.77
2018-12-07T01:37:10.590Z,100533.22
2018-12-07T01:38:13.074Z,100534.70
2018-12-07T01:39:15.582Z,100535.60
2018-12-07T01:40:19.182Z,100529.28
2018-12-07T01:41:21.649Z,100531.56
2018-12-07T01:42:24.182Z,100529.69
2018-12-07T01:43:26.690Z,100533.58
2018-12-07T01:44:29.153Z,100526.19
2018-12-07T01:45:31.703Z,100522.97
2018-12-07T01:46:34.256Z,100523.06
2018-12-07T01:47:38.745Z,100528.91
2018-12-07T01:48:41.227Z,100531.98
2018-12-07T01:49:43.745Z,100522.45
2018-12-07T01:50:46.249Z,100526.67
2018-12-07T01:51:48.728Z,100524.25
2018-12-07T01:52:51.218Z,100526.27
2018-12-07T01:53:53.737Z,100524.31
2018-12-07T01:54:56.230Z,100519.05
2018-12-07T01:55:58.794Z,100520.12
2018-12-07T01:57:01.297Z,100518.78
2018-12-07T01:58:03.802Z,100524.58
2018-12-07T01:59:06.296Z,100527.34
2018-12-07T02:00:09.032Z,100525.53
2018-12-07T02:01:11.525Z,100527.14
2018-12-07T02:02:14.024Z,100524.55
2018-12-07T02:03:16.501Z,100520.55
2018-12-07T02:04:18.993Z,100523.22
2018-12-07T02:05:21.477Z,100523.35
2018-12-07T02:06:24.031Z,100523.92
2018-12-07T02:07:31.257Z,100514.27
2018-12-07T02:08:33.736Z,100522.44
2018-12-07T02:09:36.235Z,100515.32
2018-12-07T02:10:38.736Z,100504.63
2018-12-07T02:11:41.354Z,100512.09
2018-12-07T02:12:43.890Z,100514.05
2018-12-07T02:13:46.431Z,100505.54
2018-12-07T02:14:48.897Z,100505.88
2018-12-07T02:15:51.395Z,100497.38
2018-12-07T02:16:53.856Z,100502.98
2018-12-07T02:17:56.327Z,100503.31
2018-12-07T02:18:58.877Z,100492.87
2018-12-07T02:20:01.411Z,100496.50
2018-12-07T02:21:03.995Z,100497.41
2018-12-07T02:22:06.551Z,100493.03
2018-12-07T02:23:09.068Z,100500.26
2018-12-07T02:24:11.558Z,100496.23
2018-12-07T02:25:14.714Z,100493.23
2018-12-07T02:26:17.232Z,100485.14
2018-12-07T02:27:19.815Z,100491.76
2018-12-07T02:28:22.295Z,100490.72
2018-12-07T02:29:24.796Z,100493.80
2018-12-07T02:30:27.352Z,100493.33
2018-12-07T02:31:29.831Z,100494.23
2018-12-07T02:32:32.311Z,100487.11
2018-12-07T02:33:34.804Z,100488.25
2018-12-07T02:34:37.328Z,100481.70
2018-12-07T02:35:40.692Z,100482.03
2018-12-07T02:36:43.241Z,100490.87
2018-12-07T02:37:45.720Z,100484.62
2018-12-07T02:38:48.198Z,100476.93
2018-12-07T02:39:50.698Z,100480.59
2018-12-07T02:40:53.203Z,100474.84
2018-12-07T02:41:55.683Z,100468.20
2018-12-07T02:42:58.169Z,100476.86
2018-12-07T02:44:00.670Z,100470.25
2018-12-07T02:45:03.535Z,100467.77
2018-12-07T02:46:06.073Z,100467.70
2018-12-07T02:47:08.587Z,100459.06
2018-12-07T02:48:11.063Z,100461.08
2018-12-07T02:49:13.658Z,100459.83
2018-12-07T02:50:16.159Z,100454.22
2018-12-07T02:51:18.648Z,100455.73
2018-12-07T02:52:21.165Z,100461.48
2018-12-07T02:53:23.675Z,100457.84
2018-12-07T02:54:26.165Z,100454.28
2018-12-07T02:55:28.700Z,100460.16
2018-12-07T02:56:31.178Z,100461.06
2018-12-07T02:57:33.767Z,100456.49
2018-12-07T02:58:36.314Z,100455.45
2018-12-07T02:59:38.777Z,100454.41
2018-12-07T03:00:41.290Z,100453.84
2018-12-07T03:01:43.899Z,100453.27
2018-12-07T03:02:46.752Z,100453.27
2018-12-07T03:03:49.262Z,100452.23
2018-12-07T03:04:51.765Z,100449.00
2018-12-07T03:05:54.256Z,100447.96
2018-12-07T03:06:56.769Z,100449.08
2018-12-07T03:07:59.275Z,100448.27
2018-12-07T03:09:01.751Z,100445.05
2018-12-07T03:10:05.489Z,100446.52
2018-12-07T03:11:07.981Z,100441.59
2018-12-07T03:12:10.477Z,100443.06
2018-12-07T03:13:12.980Z,100446.97
2018-12-07T03:14:15.442Z,100443.50
2018-12-07T03:15:17.937Z,100438.88
2018-12-07T03:16:20.481Z,100441.39
2018-12-07T03:17:22.973Z,100437.03
2018-12-07T03:18:32.569Z,100440.45
2018-12-07T03:19:35.045Z,100435.28
2018-12-07T03:20:37.555Z,100428.50
2018-12-07T03:21:40.075Z,100434.58
2018-12-07T03:22:42.613Z,100425.84
2018-12-07T03:23:45.080Z,100429.47
2018-12-07T03:24:47.604Z,100427.59
2018-12-07T03:25:50.092Z,100422.76
2018-12-07T03:26:52.584Z,100422.52
2018-12-07T03:27:55.089Z,100424.81
2018-12-07T03:28:57.585Z,100424.91
2018-12-07T03:30:00.063Z,100421.58
2018-12-07T03:31:02.567Z,100413.55
2018-12-07T03:32:05.090Z,100412.31
2018-12-07T03:33:07.596Z,100417.38
2018-12-07T03:34:10.115Z,100413.47
2018-12-07T03:35:12.600Z,100415.89
2018-12-07T03:36:15.085Z,100409.41
2018-12-07T03:37:17.591Z,100411.14
2018-12-07T03:38:20.071Z,100406.10
2018-12-07T03:39:22.578Z,100412.78
2018-12-07T03:40:25.053Z,100413.82
2018-12-07T03:41:27.562Z,100411.88
2018-12-07T03:42:30.139Z,100406.63
2018-12-07T03:43:32.606Z,100409.38
2018-12-07T03:44:35.106Z,100405.71
2018-12-07T03:45:37.578Z,100406.75
2018-12-07T03:46:40.085Z,100409.84
2018-12-07T03:47:42.590Z,100398.59
2018-12-07T03:48:45.106Z,100402.15
2018-12-07T03:49:47.606Z,100408.47
2018-12-07T03:50:50.087Z,100392.84
2018-12-07T03:51:52.556Z,100400.61
2018-12-07T03:52:55.060Z,100394.41
2018-12-07T03:53:57.607Z,100398.53
2018-12-07T03:55:00.101Z,100396.69
2018-12-07T03:56:02.712Z,100397.49
2018-12-07T03:57:05.209Z,100386.58
2018-12-07T03:58:07.718Z,100392.42
2018-12-07T03:59:10.180Z,100388.87
2018-12-07T04:00:12.894Z,100386.78
2018-12-07T04:01:15.371Z,100389.05
2018-12-07T04:02:17.873Z,100388.58
2018-12-07T04:03:20.409Z,100385.59
2018-12-07T04:04:23.371Z,100378.23
2018-12-07T04:05:25.847Z,100375.24
2018-12-07T04:06:28.361Z,100374.55
2018-12-07T04:07:30.866Z,100369.03
2018-12-07T04:08:33.479Z,100365.55
2018-12-07T04:09:35.965Z,100358.16
2018-12-07T04:10:38.448Z,100363.44
2018-12-07T04:11:40.946Z,100362.97
2018-12-07T04:12:43.428Z,100354.47
2018-12-07T04:13:45.926Z,100361.12
2018-12-07T04:14:48.423Z,100355.95
2018-12-07T04:15:50.910Z,100354.91
2018-12-07T04:16:53.396Z,100351.69
2018-12-07T04:17:55.864Z,100350.65
2018-12-07T04:18:58.420Z,100348.00
2018-12-07T04:20:00.902Z,100353.06
2018-12-07T04:21:03.393Z,100344.12
2018-12-07T04:22:05.882Z,100347.41
2018-12-07T04:23:08.517Z,100345.52
2018-12-07T04:24:11.129Z,100340.83
2018-12-07T04:25:13.625Z,100338.87
2018-12-07T04:26:16.103Z,100336.98
2018-12-07T04:27:18.603Z,100336.53
2018-12-07T04:28:21.067Z,100336.89
2018-12-07T04:29:23.577Z,100332.75
2018-12-07T04:30:26.312Z,100333.25
2018-12-07T04:31:28.781Z,100332.00
2018-12-07T04:32:31.335Z,100329.94
2018-12-07T04:33:33.814Z,100328.79
2018-12-07T04:34:36.320Z,100327.75
2018-12-07T04:35:38.809Z,100333.50
2018-12-07T04:36:41.311Z,100330.51
2018-12-07T04:37:43.819Z,100327.86
2018-12-07T04:38:46.313Z,100325.11
2018-12-07T04:39:48.837Z,100326.25
2018-12-07T04:40:51.514Z,100328.78
2018-12-07T04:41:54.027Z,100321.42
2018-12-07T04:42:56.532Z,100326.59
2018-12-07T04:43:59.040Z,100322.30
2018-12-07T04:45:01.607Z,100317.36
2018-12-07T04:46:04.177Z,100318.63
2018-12-07T04:47:06.927Z,100317.81
2018-12-07T04:48:09.434Z,100315.97
2018-12-07T04:49:12.029Z,100319.88
2018-12-07T04:50:14.699Z,100316.31
2018-12-07T04:51:17.180Z,100316.76
2018-12-07T04:52:19.660Z,100309.64
2018-12-07T04:53:22.204Z,100313.51
2018-12-07T04:54:24.684Z,100312.23
2018-12-07T04:55:27.197Z,100309.48
2018-12-07T04:56:29.679Z,100310.16
2018-12-07T04:57:32.177Z,100309.70
2018-12-07T04:58:34.656Z,100305.09
2018-12-07T04:59:37.140Z,100303.80
2018-12-07T05:00:39.646Z,100305.52
2018-12-07T05:01:42.298Z,100302.83
2018-12-07T05:02:44.760Z,100299.27
2018-12-07T05:03:47.241Z,100308.69
2018-12-07T05:04:50.154Z,100299.95
2018-12-07T05:05:52.673Z,100305.80
2018-12-07T05:06:55.140Z,100299.83
2018-12-07T05:07:57.641Z,100301.77
2018-12-07T05:09:00.114Z,100303.83
2018-12-07T05:10:02.732Z,100306.24
2018-12-07T05:11:05.227Z,100302.81
2018-12-07T05:12:07.708Z,100301.22
2018-12-07T05:13:10.195Z,100296.91
2018-12-07T05:14:12.689Z,100300.18
2018-12-07T05:15:15.171Z,100299.31
2018-12-07T05:16:17.659Z,100294.50
2018-12-07T05:17:20.121Z,100297.48
2018-12-07T05:18:22.615Z,100291.30
2018-12-07T05:19:25.095Z,100290.53
2018-12-07T05:20:27.573Z,100288.47
2018-12-07T05:21:30.097Z,100291.12
2018-12-07T05:22:32.705Z,100286.64
2018-12-07T05:23:35.174Z,100284.69
2018-12-07T05:24:37.651Z,100286.06
2018-12-07T05:25:40.203Z,100286.98
2018-12-07T05:26:42.765Z,100282.50
2018-12-07T05:27:45.247Z,100277.56
2018-12-07T05:28:47.831Z,100284.69
2018-12-07T05:29:50.520Z,100277.91
2018-12-07T05:30:53.021Z,100274.92
2018-12-07T05:31:55.520Z,100276.64
2018-12-07T05:32:58.003Z,100279.17
2018-12-07T05:34:00.478Z,100278.70
2018-12-07T05:35:03.330Z,100271.32
2018-12-07T05:36:05.831Z,100272.47
2018-12-07T05:37:08.352Z,100271.66
2018-12-07T05:38:10.817Z,100270.28
2018-12-07T05:39:13.311Z,100266.49
2018-12-07T05:40:15.801Z,100268.22
2018-12-07T05:41:18.298Z,100271.31
2018-12-07T05:42:20.830Z,100266.95
2018-12-07T05:43:23.322Z,100260.97
2018-12-07T05:44:25.789Z,100261.08
2018-12-07T05:45:28.359Z,100258.98
2018-12-07T05:46:30.834Z,100254.95
2018-12-07T05:47:33.350Z,100248.41
2018-12-07T05:48:35.836Z,100252.08
2018-12-07T05:49:38.322Z,100253.56
2018-12-07T05:50:40.807Z,100253.10
2018-12-07T05:51:43.270Z,100256.50
2018-12-07T05:52:45.784Z,100249.36
2018-12-07T05:53:48.267Z,100248.89
2018-12-07T05:54:50.767Z,100245.09
2018-12-07T05:55:53.261Z,100246.81
2018-12-07T05:56:55.739Z,100242.22
2018-12-07T05:57:58.235Z,100244.28
2018-12-07T05:59:00.700Z,100242.90
2018-12-07T06:00:04.048Z,100239.91
2018-12-07T06:01:06.623Z,100244.95
2018-12-07T06:02:09.102Z,100243.09
2018-12-07T06:03:11.640Z,100234.59
2018-12-07T06:04:14.191Z,100231.27
2018-12-07T06:05:16.698Z,100230.05
2018-12-07T06:06:19.344Z,100222.26
2018-12-07T06:07:21.835Z,100225.37
2018-12-07T06:08:24.345Z,100223.72
2018-12-07T06:09:26.856Z,100220.05
2018-12-07T06:10:29.381Z,100222.59
2018-12-07T06:11:31.863Z,100220.09
2018-12-07T06:12:34.349Z,100224.92
2018-12-07T06:13:36.874Z,100216.20
2018-12-07T06:14:39.370Z,100223.32
2018-12-07T06:15:41.889Z,100221.02
2018-12-07T06:16:44.353Z,100221.25
2018-12-07T06:17:46.877Z,100219.77
2018-12-07T06:18:49.402Z,100218.39
2018-12-07T06:19:51.915Z,100215.09
2018-12-07T06:20:54.400Z,100214.25
2018-12-07T06:21:56.902Z,100210.95
2018-12-07T06:22:59.368Z,100206.56
2018-12-07T06:24:01.856Z,100203.80
2018-12-07T06:25:04.778Z,100201.05
2018-12-07T06:26:07.294Z,100203.23
2018-12-07T06:27:09.789Z,100196.92
2018-12-07T06:28:12.275Z,100192.78
2018-12-07T06:29:14.785Z,100187.04
2018-12-07T06:30:17.376Z,100187.38
2018-12-07T06:31:19.849Z,100187.73
2018-12-07T06:32:22.359Z,100185.78
2018-12-07T06:33:24.915Z,100186.13
2018-12-07T06:34:27.494Z,100179.92
2018-12-07T06:35:29.979Z,100186.23
2018-12-07T06:36:32.455Z,100180.15
2018-12-07T06:37:34.977Z,100177.16
2018-12-07T06:38:37.464Z,100181.06
2018-12-07T06:39:39.976Z,100185.77
2018-12-07T06:40:42.592Z,100174.98
2018-12-07T06:41:45.148Z,100185.20
2018-12-07T06:42:47.646Z,100183.82
2018-12-07T06:44:12.054Z,100175.09
2018-12-07T06:45:14.577Z,100181.75
2018-12-07T06:46:17.065Z,100185.31
2018-12-07T06:47:19.558Z,100179.00
2018-12-07T06:48:22.051Z,100168.86
2018-12-07T06:49:24.540Z,100175.29
2018-12-07T06:50:27.063Z,100178.05
2018-12-07T06:51:29.534Z,100178.05
2018-12-07T06:52:32.039Z,100176.89
2018-12-07T06:53:34.540Z,100171.84
2018-12-07T06:54:37.045Z,100169.31
2018-12-07T06:55:39.642Z,100167.87
2018-12-07T06:56:42.152Z,100173.37
2018-12-07T06:57:44.646Z,100164.29
2018-12-07T06:58:47.165Z,100169.19
2018-12-07T06:59:49.655Z,100162.75
2018-12-07T07:00:52.183Z,100159.48
2018-12-07T07:01:54.663Z,100164.05
2018-12-07T07:02:57.191Z,100157.80
2018-12-07T07:03:59.672Z,100160.77
2018-12-07T07:05:02.188Z,100162.42
2018-12-07T07:06:04.677Z,100158.72
2018-12-07T07:07:07.195Z,100159.00
2018-12-07T07:08:09.695Z,100163.20
2018-12-07T07:09:12.189Z,100157.56
2018-12-07T07:10:14.680Z,100158.44
2018-12-07T07:11:17.210Z,100148.92
2018-12-07T07:12:19.703Z,100148.69
2018-12-07T07:13:22.338Z,100152.00
2018-12-07T07:14:24.816Z,100145.94
2018-12-07T07:15:27.296Z,100147.55
2018-12-07T07:16:29.823Z,100149.15
2018-12-07T07:17:32.340Z,100142.27
2018-12-07T07:18:35.497Z,100141.70
2018-12-07T07:19:41.872Z,100145.49
2018-12-07T07:20:44.834Z,100145.19
2018-12-07T07:21:49.390Z,100143.47
2018-12-07T07:22:53.459Z,100140.48
2018-12-07T07:23:56.159Z,100135.22
2018-12-07T07:25:02.029Z,100134.42
2018-12-07T07:26:04.565Z,100144.28
2018-12-07T07:27:07.087Z,100142.91
2018-12-07T07:28:09.556Z,100139.58
2018-12-07T07:29:12.038Z,100140.16
2018-12-07T07:30:14.659Z,100132.13
2018-12-07T07:31:17.181Z,100133.27
2018-12-07T07:32:19.701Z,100130.52
2018-12-07T07:33:22.190Z,100127.77
2018-12-07T07:34:24.692Z,100127.55
2018-12-07T07:35:27.175Z,100122.27
2018-12-07T07:36:29.646Z,100121.23
2018-12-07T07:37:32.146Z,100127.31
2018-12-07T07:38:35.368Z,100122.61
2018-12-07T07:39:37.852Z,100122.37
2018-12-07T07:40:40.316Z,100126.23
2018-12-07T07:41:42.777Z,100126.23
2018-12-07T07:42:45.291Z,100128.45
2018-12-07T07:43:48.233Z,100125.20
2018-12-07T07:44:50.973Z,100126.58
2018-12-07T07:45:53.659Z,100118.89
2018-12-07T07:46:57.375Z,100115.11
2018-12-07T07:47:59.892Z,100119.23
2018-12-07T07:49:02.588Z,100108.57
2018-12-07T07:50:07.277Z,100111.31
2018-12-07T07:51:12.375Z,100110.28
2018-12-07T07:52:15.694Z,100106.96
2018-12-07T07:53:18.602Z,100103.41
2018-12-07T07:54:21.308Z,100103.17
2018-12-07T07:55:24.411Z,100103.17
2018-12-07T07:56:26.876Z,100104.08
2018-12-07T07:57:29.393Z,100106.26
2018-12-07T07:58:33.330Z,100102.13
2018-12-07T07:59:35.823Z,100094.80
2018-12-07T08:00:38.322Z,100091.01
2018-12-07T08:01:40.812Z,100094.56
2018-12-07T08:02:43.295Z,100087.69
2018-12-07T08:03:45.781Z,100096.84
2018-12-07T08:04:48.240Z,100090.77
2018-12-07T08:05:50.708Z,100091.88
2018-12-07T08:06:53.187Z,100092.45
2018-12-07T08:07:55.735Z,100091.65
2018-12-07T08:08:58.278Z,100088.66
2018-12-07T08:10:00.769Z,100089.00
2018-12-07T08:11:03.265Z,100084.87
2018-12-07T08:12:05.850Z,100092.32
2018-12-07T08:13:08.335Z,100090.14
2018-12-07T08:14:10.853Z,100088.53
2018-12-07T08:15:13.465Z,100087.16
2018-12-07T08:16:15.955Z,100084.18
2018-12-07T08:17:18.435Z,100085.32
2018-12-07T08:18:21.078Z,100090.25
2018-12-07T08:19:23.582Z,100092.19
2018-12-07T08:20:26.071Z,100087.84
2018-12-07T08:21:28.565Z,100088.41
2018-12-07T08:22:31.062Z,100086.80
2018-12-07T08:23:33.528Z,100086.23
2018-12-07T08:24:36.032Z,100084.62
2018-12-07T08:25:38.527Z,100081.87
2018-12-07T08:26:40.999Z,100081.63
2018-12-07T08:27:43.493Z,100083.58
2018-12-07T08:28:45.971Z,100075.33
2018-12-07T08:29:48.463Z,100081.40
2018-12-07T08:30:50.971Z,100078.42
2018-12-07T08:31:53.472Z,100080.36
2018-12-07T08:32:55.937Z,100078.98
2018-12-07T08:34:00.178Z,100080.09
2018-12-07T08:35:02.938Z,100072.42
2018-12-07T08:36:05.403Z,100074.36
2018-12-07T08:37:07.882Z,100077.11
2018-12-07T08:38:10.375Z,100073.56
2018-12-07T08:39:12.937Z,100070.58
2018-12-07T08:40:15.438Z,100070.58
2018-12-07T08:41:17.915Z,100067.83
2018-12-07T08:42:20.407Z,100068.41
2018-12-07T08:43:22.901Z,100061.30
2018-12-07T08:44:25.361Z,100066.80
2018-12-07T08:45:27.924Z,100063.81
2018-12-07T08:46:30.403Z,100069.31
2018-12-07T08:47:32.879Z,100067.70
2018-12-07T08:48:35.382Z,100057.27
2018-12-07T08:49:43.604Z,100061.39
2018-12-07T08:50:46.115Z,100063.91
2018-12-07T08:51:48.660Z,100054.86
2018-12-07T08:52:51.129Z,100055.77
2018-12-07T08:53:53.596Z,100058.75
2018-12-07T08:54:56.078Z,100051.64
2018-12-07T08:55:58.562Z,100055.77
2018-12-07T08:57:01.039Z,100053.02
2018-12-07T08:58:03.533Z,100054.39
2018-12-07T08:59:06.008Z,100052.78
2018-12-07T09:00:08.717Z,100048.66
2018-12-07T09:01:11.255Z,100049.80
2018-12-07T09:02:13.818Z,100048.20
2018-12-07T09:03:16.303Z,100043.50
2018-12-07T09:04:18.764Z,100034.22
2018-12-07T09:05:21.224Z,100039.72
2018-12-07T09:06:23.713Z,100043.00
2018-12-07T09:07:26.211Z,100042.47
2018-12-07T09:08:28.673Z,100041.39
2018-12-07T09:09:31.163Z,100032.92
2018-12-07T09:10:33.623Z,100034.30
2018-12-07T09:11:36.126Z,100030.73
2018-12-07T09:12:38.629Z,100033.48
2018-12-07T09:13:41.171Z,100029.36
2018-12-07T09:14:43.655Z,100029.13
2018-12-07T09:15:46.120Z,100024.44
2018-12-07T09:16:48.601Z,100027.52
2018-12-07T09:17:51.116Z,100017.91
2018-12-07T09:18:53.600Z,100024.20
2018-12-07T09:19:56.061Z,100021.80
2018-12-07T09:20:58.679Z,100017.44
2018-12-07T09:22:01.169Z,100008.62
2018-12-07T09:23:03.713Z,100014.69
2018-12-07T09:24:06.191Z,100010.33
2018-12-07T09:25:08.763Z,100013.31
2018-12-07T09:26:11.235Z,100005.98
2018-12-07T09:27:13.720Z,100005.98
2018-12-07T09:28:16.215Z,100003.23
2018-12-07T09:29:18.756Z,100003.56
2018-12-07T09:30:21.304Z,99996.70
2018-12-07T09:31:23.775Z,99995.89
2018-12-07T09:32:26.363Z,100002.53
2018-12-07T09:33:28.862Z,100003.56
2018-12-07T09:34:31.321Z,99994.86
2018-12-07T09:35:33.799Z,99994.28
2018-12-07T09:36:36.290Z,99998.41
2018-12-07T09:37:38.783Z,99989.93
2018-12-07T09:38:41.244Z,99995.42
2018-12-07T09:39:43.719Z,99994.86
2018-12-07T09:40:46.188Z,99985.58
2018-12-07T09:41:48.656Z,99986.14
2018-12-07T09:42:51.219Z,99978.44
2018-12-07T09:43:53.695Z,99979.81
2018-12-07T09:44:56.168Z,99972.72
2018-12-07T09:45:58.639Z,99969.39
2018-12-07T09:47:01.096Z,99965.27
2018-12-07T09:48:03.590Z,99966.18
2018-12-07T09:49:06.079Z,99970.87
2018-12-07T09:50:08.657Z,99969.73
2018-12-07T09:51:11.120Z,99968.93
2018-12-07T09:52:13.607Z,99972.48
2018-12-07T09:53:16.119Z,99964.00
2018-12-07T09:54:18.613Z,99958.51
2018-12-07T09:55:21.107Z,99958.27
2018-12-07T09:56:23.589Z,99950.03
2018-12-07T09:57:26.116Z,99941.56
2018-12-07T09:58:28.607Z,99937.44
2018-12-07T09:59:31.079Z,99941.56
2018-12-07T10:00:33.555Z,99935.03
2018-12-07T10:01:36.085Z,99930.91
2018-12-07T10:02:38.738Z,99935.83
2018-12-07T10:03:41.226Z,99939.15
2018-12-07T10:04:43.701Z,99926.55
2018-12-07T10:05:46.157Z,99926.55
2018-12-07T10:06:48.634Z,99924.37
2018-12-07T10:07:51.140Z,99921.05
2018-12-07T10:08:53.664Z,99916.70
2018-12-07T10:09:56.135Z,99923.57
2018-12-07T10:10:58.615Z,99908.80
2018-12-07T10:12:01.106Z,99908.00
2018-12-07T10:13:07.987Z,99904.91
2018-12-07T10:14:08.100Z,99901.70
2018-12-07T10:15:10.727Z,99898.95
2018-12-07T10:16:13.199Z,99894.03
2018-12-07T10:17:15.697Z,99894.59
2018-12-07T10:18:18.213Z,99898.72
2018-12-07T10:19:20.740Z,99886.69
2018-12-07T10:20:23.219Z,99893.22
2018-12-07T10:21:25.682Z,99886.69
2018-12-07T10:22:28.188Z,99883.95
2018-12-07T10:23:30.667Z,99885.32
2018-12-07T10:24:33.151Z,99882.31
2018-12-07T10:25:35.732Z,99878.19
2018-12-07T10:26:38.221Z,99882.88
2018-12-07T10:27:40.741Z,99881.77
2018-12-07T10:28:43.211Z,99878.76
2018-12-07T10:29:45.693Z,99880.13
2018-12-07T10:30:48.152Z,99874.41
2018-12-07T10:31:50.652Z,99871.66
2018-12-07T10:32:53.138Z,99877.16
2018-12-07T10:33:55.614Z,99868.68
2018-12-07T10:34:58.096Z,99862.05
2018-12-07T10:36:00.548Z,99860.44
2018-12-07T10:37:03.023Z,99860.44
2018-12-07T10:38:05.485Z,99852.77
2018-12-07T10:39:07.972Z,99853.58
2018-12-07T10:40:10.623Z,99851.39
2018-12-07T10:41:13.104Z,99846.24
2018-12-07T10:42:15.565Z,99838.57
2018-12-07T10:43:18.114Z,99836.86
2018-12-07T10:44:20.652Z,99837.77
2018-12-07T10:45:23.168Z,99838.91
2018-12-07T10:46:25.647Z,99841.09
2018-12-07T10:47:28.134Z,99829.30
2018-12-07T10:48:30.627Z,99826.78
2018-12-07T10:49:33.108Z,99823.80
2018-12-07T10:50:35.603Z,99827.92
2018-12-07T10:51:38.178Z,99827.92
2018-12-07T10:52:40.643Z,99822.20
2018-12-07T10:53:43.115Z,99824.95
2018-12-07T10:54:45.574Z,99814.77
2018-12-07T10:55:48.079Z,99812.36
2018-12-07T10:56:50.561Z,99813.95
2018-12-07T10:57:53.042Z,99806.62
2018-12-07T10:58:55.644Z,99809.03
2018-12-07T10:59:58.109Z,99809.61
2018-12-07T11:01:06.289Z,99802.51
2018-12-07T11:02:14.419Z,99803.31
2018-12-07T11:03:22.349Z,99798.39
2018-12-07T11:04:30.558Z,99794.04
2018-12-07T11:05:38.764Z,99799.53
2018-12-07T11:06:47.046Z,99794.04
2018-12-07T11:07:55.059Z,99792.17
2018-12-07T11:09:04.070Z,99790.23
2018-12-07T11:10:12.654Z,99788.86
2018-12-07T11:11:20.936Z,99790.80
2018-12-07T11:12:28.956Z,99785.30
2018-12-07T11:13:33.289Z,99790.00
2018-12-07T11:14:41.393Z,99790.00
2018-12-07T11:15:49.537Z,99791.94
2018-12-07T11:16:57.710Z,99780.70
2018-12-07T11:18:12.674Z,99775.20
2018-12-07T11:19:20.714Z,99780.70
2018-12-07T11:20:28.705Z,99765.92
2018-12-07T11:21:36.961Z,99766.73
2018-12-07T11:22:45.047Z,99757.12
2018-12-07T11:23:53.213Z,99750.59
2018-12-07T11:26:42.980Z,99747.05
2018-12-07T11:27:51.087Z,99742.92
2018-12-07T11:28:59.312Z,99744.30
2018-12-07T11:30:07.571Z,99744.06
2018-12-07T11:31:15.820Z,99742.70
2018-12-07T11:32:20.271Z,99747.62
2018-12-07T11:33:27.189Z,99744.06
2018-12-07T11:34:31.631Z,99734.23
2018-12-07T11:35:34.998Z,99735.83
2018-12-07T11:36:37.553Z,99728.50
2018-12-07T11:37:40.128Z,99718.89
2018-12-07T11:38:42.612Z,99732.05
2018-12-07T11:39:45.171Z,99720.84
2018-12-07T11:40:47.705Z,99718.89
2018-12-07T11:41:50.215Z,99715.91
2018-12-07T11:42:52.792Z,99711.80
2018-12-07T11:43:55.292Z,99711.23
2018-12-07T11:44:57.790Z,99710.42
2018-12-07T11:46:00.302Z,99698.06
2018-12-07T11:47:02.760Z,99698.06
2018-12-07T11:48:05.423Z,99693.72
2018-12-07T11:49:07.989Z,99683.30
2018-12-07T11:50:10.920Z,99688.23
2018-12-07T11:51:13.514Z,99676.78
2018-12-07T11:52:16.029Z,99674.27
2018-12-07T11:53:18.505Z,99655.05
2018-12-07T11:54:21.057Z,99655.63
2018-12-07T11:55:23.542Z,99644.63
2018-12-07T11:56:26.032Z,99641.89
2018-12-07T11:57:28.521Z,99638.34
2018-12-07T11:58:31.044Z,99641.66
2018-12-07T11:59:33.502Z,99627.36
2018-12-07T12:00:35.973Z,99623.24
2018-12-07T12:01:44.663Z,99618.09
2018-12-07T12:02:43.083Z,99609.28
2018-12-07T12:03:45.642Z,99614.78